Tiempo atmosférico en la estación meteorológica de Gotarrendura , Ávila (920 m.)



Fecha
DESCASC
Temp. máxima en grados centígrados (hora)
DESCASC
Temp. mínima en grados centígrados (hora)
DESCASC
Temp. media en grados centígrados
DESCASC
Racha de viento máxima en m/sg (hora)
DESCASC
Velocidad máxima media en intervalos de 10 minutos(hora)
DESCASC
Precipitaciones diarias en mm
DESCASC
Precipitaciones de 00:00 a 06:00 en mm
DESCASC
Precipitaciones de 06:00 a 12:00 en mm
DESCASC
Precipitaciones de 12:00 a 18:00 en mm
DESCASC
Precipitaciones de 18:00 a 24:00 en mm
DESCASC
15-08-2019 30.9 (17:20) 16.7 (07:40) 23.8 6.67 (18:40) 4.44 (02:20) 0 0 0 0 0
14-08-2019 30 (17:00) 12 (00:00) 21 8.06 (14:40) 3.89 (19:00) 0 0 0 0 0
13-08-2019 25.9 (17:10) 6.5 (00:00) 16.2 7.5 (17:40) 3.89 (17:40) 0 0 0 0 0
12-08-2019 22.3 (17:30) 8.2 (00:00) 15.2 7.78 (11:30) 4.44 (22:50) 0 0 0 0 0
11-08-2019 22.5 (17:10) 11.9 (00:00) 17.2 11.67 (16:10) 7.5 (20:40) 0.6 0.6 0 0 0
10-08-2019 27.4 (17:40) 10 (00:00) 18.7 7.5 (23:00) 4.44 (23:00) 0 0 0 0 0
09-08-2019 27.3 (16:10) 15.9 (00:00) 21.6 18.61 (17:30) 13.61 (17:30) 0 0 0 0 0
08-08-2019 32.3 (17:30) 16.1 (00:00) 24.2 12.78 (19:50) 10 (19:40) 0 0 0 0 0
07-08-2019 24.2 (15:10) 18.5 (00:00) 21.4 8.61 (19:30) 6.39 (20:00) 0 0 0 0 0
06-08-2019 32.7 (17:00) 16.2 (00:00) 24.5 10 (19:40) 7.5 (19:50) 0 0 0 0 0
05-08-2019 32.7 (16:40) 15.2 (00:00) 24 10 (17:30) 6.94 (17:30) 0 0 0 0 0
04-08-2019 32.6 (17:10) 16.7 (00:00) 24.6 10.83 (16:00) 6.11 (18:20) 0 0 0 0 0
03-08-2019 33.7 (16:40) 15.1 (00:00) 24.4 10 (17:10) 6.67 (19:10) 0 0 0 0 0
02-08-2019 32.7 (16:30) 13.1 (00:00) 22.9 8.33 (16:50) 5 (15:20) 0 0 0 0 0
01-08-2019 30.3 (17:30) 15.1 (00:00) 22.7 11.11 (17:40) 5.83 (13:10) 0 0 0 0 0
31-07-2019 31.8 (16:30) 8.6 (00:00) 20.2 16.94 (16:20) 6.67 (17:30) 0 0 0 0 0
30-07-2019 24.8 (18:00) 9.3 (00:00) 17 7.78 (16:30) 4.44 (03:20) 0 0 0 0 0
29-07-2019 26.4 (16:40) 13.7 (00:00) 20 12.22 (16:40) 7.78 (16:40) 0 0 0 0 0
28-07-2019 26.6 (17:30) 8.5 (00:00) 17.6 8.89 (19:00) 4.72 (17:40) 0 0 0 0 0
27-07-2019 23.8 (18:50) 13.2 (00:00) 18.5 13.33 (18:10) 9.44 (18:10) 0 0 0 0 0
26-07-2019 25.6 (16:50) 17 (00:00) 21.3 11.39 (17:50) 7.78 (19:30) 0 0 0 0 0
25-07-2019 33.8 (16:40) 17.8 (00:00) 25.8 10.83 (13:00) 7.78 (21:10) 0 0 0 0 0
24-07-2019 35.2 (17:10) 19.3 (00:00) 27.3 13.33 (18:40) 6.67 (10:10) 0 0 0 0 0
23-07-2019 34.8 (16:00) 19.5 (00:00) 27.1 16.11 (21:00) 9.72 (21:00) 0.6 0.2 0.4 0 0
22-07-2019 36.1 (14:50) 23.8 (00:00) 29.9 12.78 (08:30) 8.06 (08:30) 0 0 0 0 0
21-07-2019 35 (16:50) 15.9 (00:00) 25.4 12.5 (19:40) 5 (19:30) 0 0 0 0 0
20-07-2019 32.7 (16:50) 17.5 (00:00) 25.1 13.61 (16:10) 5.83 (17:30) 0 0 0 0 0
19-07-2019 33.7 (13:20) 16.1 (00:00) 24.9 10 (15:30) 6.39 (20:50) 0 0 0 0 0

Gráficas

Temp. máximas Temp. mínimas Temp. medias Precipitaciones Rachas de viento máximas Velocidades máximas media en intervalos de 10 minutos

Datos horarios

Fecha y hora oficial Temperatura (ºC) Velocidad del viento (km/h) Dirección del viento Racha (km/h) Dirección de racha Precipitación (mm) Presión (hPa) Tendencia (hPa) Humedad (%)
2019-08-17 23:00:00 24.4 9 Sudoeste 13 Sudoeste 0 -- -- 22
2019-08-17 22:00:00 26.7 11 Oeste 20 Oeste 0 -- -- 20
2019-08-17 21:00:00 30.3 18 Oeste 33 Oeste -- -- -- 17
2019-08-17 20:00:00 32.2 26 Oeste 35 Oeste 0 -- -- 19
2019-08-17 19:00:00 32.6 12 Oeste 32 Oeste 0 -- -- 22
2019-08-17 18:00:00 33.2 15 Noroeste 31 Oeste 0 -- -- 23
2019-08-17 17:00:00 33.2 10 Noroeste 28 Oeste 0 -- -- 24
2019-08-17 16:00:00 32.6 18 Oeste 32 Oeste 0 -- -- 25
2019-08-17 15:00:00 31.8 11 Noroeste 25 Oeste 0 -- -- 27
2019-08-17 14:00:00 31.1 14 Noroeste 27 Noroeste 0 -- -- 27
2019-08-17 13:00:00 30.2 10 Noroeste 17 Oeste 0 -- -- 29
2019-08-17 12:00:00 27.7 5 Nordeste 12 Nordeste 0 -- -- 33
2019-08-17 11:00:00 25.2 5 Norte 14 Noroeste 0 -- -- 40
2019-08-17 10:00:00 23.4 6 Norte 10 Noroeste 0 -- -- 44
2019-08-17 09:00:00 19.1 2 Sudeste 6 Noroeste 0 -- -- 50
2019-08-17 08:00:00 15.1 2 Sur 5 Sur 0 -- -- 59
2019-08-17 07:00:00 16.1 4 Sudeste 13 Sudoeste 0 -- -- 56
2019-08-17 06:00:00 17.1 8 Sudoeste 13 Sur 0 -- -- 54
2019-08-17 05:00:00 18.8 9 Sudoeste 14 Sur 0 -- -- 49
2019-08-17 04:00:00 19.1 7 Sudoeste 13 Sudoeste 0 -- -- 45
2019-08-17 03:00:00 20.1 8 Sudoeste 15 Sudoeste 0 -- -- 40
2019-08-17 02:00:00 21 11 Sudoeste 15 Sudoeste 0 -- -- 35
2019-08-17 01:00:00 21.5 9 Sudoeste 13 Sur 0 -- -- 31
2019-08-17 00:00:00 22.6 9 Sudoeste 13 Sudoeste 0 -- -- 29
2019-08-16 23:00:00 23.3 8 Sudoeste 12 Sudoeste 0 -- -- 28
2019-08-16 22:00:00 26.1 6 Sudoeste 15 Noroeste 0 -- -- 25
2019-08-16 21:00:00 29.5 11 Noroeste 28 Noroeste 0 -- -- 23
2019-08-16 20:00:00 30.7 21 Oeste 35 Oeste 0 -- -- 23
2019-08-16 19:00:00 31.5 23 Oeste 36 Oeste 0 -- -- 25
2019-08-16 18:00:00 32 19 Noroeste 39 Oeste 0 -- -- 27
2019-08-16 17:00:00 32.2 14 Oeste 36 Oeste 0 -- -- 29
2019-08-16 16:00:00 31.5 13 Oeste 30 Oeste 0 -- -- 29
2019-08-16 15:00:00 30.6 12 Noroeste 32 Noroeste 0 -- -- 31
2019-08-16 14:00:00 29.7 12 Noroeste 27 Oeste 0 -- -- 34
2019-08-16 13:00:00 28.9 12 Noroeste 40 Oeste 0 -- -- 36
2019-08-16 12:00:00 27.1 6 Noroeste 18 Oeste 0 -- -- 40
2019-08-16 11:00:00 24.9 6 Oeste 13 Oeste 0 -- -- 44
2019-08-16 10:00:00 23.1 3 Noroeste 7 Noroeste 0 -- -- 46
2019-08-16 09:00:00 20.3 0 Calma 4 Sudeste 0 -- -- 49
2019-08-16 08:00:00 15.1 3 Sur 9 Sudoeste 0 -- -- 59
2019-08-16 07:00:00 15.5 4 Sudoeste 8 Sudoeste 0 -- -- 58
2019-08-16 06:00:00 15.8 4 Sur 7 Sudeste 0 -- -- 55
2019-08-16 05:00:00 15.9 3 Sudeste 6 Sudeste 0 -- -- 55
2019-08-16 04:00:00 17.3 0 Calma 17 Norte 0 -- -- 49
2019-08-16 03:00:00 18.3 6 Sudoeste 10 Sudoeste 0 -- -- 51
2019-08-16 02:00:00 20 3 Sur 12 Sudeste 0 -- -- 48
2019-08-16 01:00:00 21.6 11 Este 14 Este 0 -- -- 47
2019-08-16 00:00:00 22.3 10 Este 17 Nordeste 0 -- -- 40
2019-08-15 23:00:00 23 0 Calma 5 Norte 0 -- -- 40
2019-08-15 22:00:00 25.6 4 Norte 13 Norte 0 -- -- 34
2019-08-15 21:00:00 28.5 10 Norte 22 Norte 0 -- -- 30
2019-08-15 20:00:00 29.8 13 Noroeste 22 Noroeste 0 -- -- 29
2019-08-15 19:00:00 30.4 8 Noroeste 24 Oeste 0 -- -- 26
2019-08-15 18:00:00 30.9 8 Noroeste 22 Oeste 0 -- -- 24
2019-08-15 17:00:00 30.7 11 Norte 21 Noroeste 0 -- -- 25
2019-08-15 16:00:00 30.4 9 Noroeste 20 Norte 0 -- -- 27
2019-08-15 15:00:00 29.7 5 Nordeste 22 Nordeste 0 -- -- 27
2019-08-15 14:00:00 28.6 15 Nordeste 22 Nordeste 0 -- -- 28
2019-08-15 13:00:00 26.9 5 Norte 17 Norte 0 -- -- 36
2019-08-15 12:00:00 25.2 8 Noroeste 18 Norte 0 -- -- 44
2019-08-15 11:00:00 22.1 7 Oeste 15 Oeste 0 -- -- 55
2019-08-15 10:00:00 19.5 10 Oeste 17 Oeste 0 -- -- 63
2019-08-15 09:00:00 18.3 11 Noroeste 18 Noroeste 0 -- -- 67
2019-08-15 08:00:00 16.9 7 Sudoeste 12 Sudoeste 0 -- -- 68
2019-08-15 07:00:00 17.5 8 Sudoeste 12 Sudoeste 0 -- -- 67
2019-08-15 06:00:00 17.8 6 Sudoeste 15 Oeste 0 -- -- 66
2019-08-15 05:00:00 18.3 6 Sudoeste 15 Oeste 0 -- -- 65
2019-08-15 04:00:00 19.2 12 Oeste 17 Oeste 0 -- -- 63
2019-08-15 03:00:00 20.4 12 Oeste 23 Oeste 0 -- -- 59
2019-08-15 02:00:00 21.5 15 Oeste 22 Oeste 0 -- -- 54
2019-08-15 01:00:00 22.5 15 Oeste 20 Oeste 0 -- -- 47
2019-08-15 00:00:00 20.5 7 Sudoeste 13 Sur 0 -- -- 37
2019-08-14 23:00:00 21.9 6 Sudoeste 9 Sudoeste 0 -- -- 33
2019-08-14 22:00:00 24.8 3 Oeste 9 Norte 0 -- -- 30
2019-08-14 21:00:00 28.1 5 Noroeste 21 Oeste 0 -- -- 26
2019-08-14 20:00:00 28.8 5 Noroeste 21 Oeste 0 -- -- 24
2019-08-14 19:00:00 29.2 14 Noroeste 25 Oeste 0 -- -- 22
2019-08-14 18:00:00 29.8 11 Noroeste 26 Noroeste 0 -- -- 22
2019-08-14 17:00:00 30 8 Noroeste 29 Oeste 0 -- -- 21
2019-08-14 16:00:00 29.1 11 Noroeste 22 Noroeste 0 -- -- 21
2019-08-14 15:00:00 28.1 13 Oeste 29 Noroeste 0 -- -- 22
2019-08-14 14:00:00 27.3 8 Sudoeste 22 Oeste 0 -- -- 23
2019-08-14 13:00:00 26.1 8 Oeste 18 Oeste 0 -- -- 23
2019-08-14 12:00:00 25.5 6 Noroeste 17 Oeste 0 -- -- 24
2019-08-14 11:00:00 22.5 7 Noroeste 15 Oeste 0 -- -- 27
2019-08-14 10:00:00 19.4 5 Oeste 12 Noroeste 0 -- -- 31
2019-08-14 09:00:00 17.3 0 Calma 7 Sur 0 -- -- 38
2019-08-14 08:00:00 12.6 4 Sudeste 8 Sudeste 0 -- -- 42
2019-08-14 07:00:00 12.4 4 Sudeste 15 Sudoeste 0 -- -- 43
2019-08-14 06:00:00 12.7 6 Sur 10 Sur 0 -- -- 41
2019-08-14 05:00:00 12.5 3 Sur 10 Sur 0 -- -- 40
2019-08-14 04:00:00 12.6 3 Sur 10 Sur 0 -- -- 39
2019-08-14 03:00:00 12.8 4 Sudoeste 11 Sudoeste 0 -- -- 39
2019-08-14 02:00:00 13.6 7 Sudoeste 10 Sudoeste 0 -- -- 38
2019-08-14 01:00:00 14.3 8 Sudoeste 11 Sudoeste 0 -- -- 37
2019-08-14 00:00:00 15.3 6 Sudoeste 9 Sudoeste 0 -- -- 35
2019-08-13 23:00:00 17.2 4 Sudoeste 6 Sudoeste 0 -- -- 32
2019-08-13 22:00:00 20.5 4 Noroeste 13 Noroeste 0 -- -- 27
2019-08-13 21:00:00 23.8 10 Noroeste 18 Norte 0 -- -- 23
2019-08-13 20:00:00 24.7 7 Noroeste 23 Noroeste 0 -- -- 22
2019-08-13 19:00:00 25 9 Norte 25 Noroeste 0 -- -- 21
2019-08-13 18:00:00 25.8 13 Norte 27 Noroeste 0 -- -- 20
2019-08-13 17:00:00 25.7 10 Noroeste 22 Noroeste 0 -- -- 20
2019-08-13 16:00:00 25.1 10 Noroeste 21 Oeste 0 -- -- 22
2019-08-13 15:00:00 24.3 6 Oeste 22 Norte 0 -- -- 25
2019-08-13 14:00:00 23.3 8 Nordeste 19 Nordeste 0 -- -- 29
2019-08-13 13:00:00 21.6 9 Norte 23 Norte 0 -- -- 34
2019-08-13 12:00:00 19.9 6 Nordeste 20 Este 0 -- -- 41
2019-08-13 11:00:00 16.8 3 Noroeste 8 Norte 0 -- -- 52
2019-08-13 10:00:00 14.4 3 Noroeste 7 Norte 0 -- -- 57
2019-08-13 09:00:00 10.8 2 Oeste 5 Sudoeste 0 -- -- 67
2019-08-13 08:00:00 7 2 Sur 5 Sur 0 -- -- 74
2019-08-13 07:00:00 7.5 2 Sudoeste 6 Sudeste 0 -- -- 68
2019-08-13 06:00:00 7.8 3 Sudoeste 6 Sudoeste 0 -- -- 69
2019-08-13 05:00:00 8.7 4 Sudoeste 6 Oeste 0 -- -- 62
2019-08-13 04:00:00 10.2 0 Calma 9 Este 0 -- -- 57
2019-08-13 03:00:00 12 0 Calma 5 Nordeste 0 -- -- 60
2019-08-13 02:00:00 13.5 3 Norte 5 Nordeste 0 -- -- 52
2019-08-13 01:00:00 14.7 3 Noroeste 15 Nordeste 0 -- -- 47
2019-08-13 00:00:00 16.7 12 Nordeste 24 Nordeste 0 -- -- 42
2019-08-12 23:00:00 18.1 13 Nordeste 23 Nordeste 0 -- -- 35
2019-08-12 22:00:00 18.5 11 Nordeste 16 Nordeste 0 -- -- 33
2019-08-12 21:00:00 20.2 11 Norte 23 Noroeste 0 -- -- 30
2019-08-12 20:00:00 21.6 12 Norte 25 Norte 0 -- -- 28
2019-08-12 19:00:00 22.3 10 Norte 24 Nordeste 0 -- -- 28
2019-08-12 18:00:00 22 9 Norte 21 Nordeste 0 -- -- 28
2019-08-12 17:00:00 21.8 11 Norte 25 Norte 0 -- -- 29
2019-08-12 16:00:00 21.8 12 Norte 28 Norte 0 -- -- 30
2019-08-12 15:00:00 21.1 11 Norte 26 Nordeste 0 -- -- 33
2019-08-12 14:00:00 20.1 14 Norte 24 Norte 0 -- -- 36
2019-08-12 13:00:00 18.4 13 Nordeste 24 Nordeste 0 -- -- 41
2019-08-12 12:00:00 17.3 8 Norte 28 Norte 0 -- -- 47
2019-08-12 11:00:00 14.8 13 Nordeste 27 Nordeste 0 -- -- 58
2019-08-12 10:00:00 13.7 7 Norte 15 Norte 0 -- -- 63
2019-08-12 09:00:00 10.9 6 Noroeste 13 Noroeste 0 -- -- 75
2019-08-12 08:00:00 8.5 8 Oeste 10 Oeste 0 -- -- 78
2019-08-12 07:00:00 8.4 8 Oeste 14 Oeste 0 -- -- 76
2019-08-12 06:00:00 10.1 11 Oeste 17 Oeste 0 -- -- 71
2019-08-12 05:00:00 9.7 10 Oeste 17 Oeste 0 -- -- 72
2019-08-12 04:00:00 10.2 13 Oeste 18 Oeste 0 -- -- 68
2019-08-12 03:00:00 11.4 12 Oeste 21 Sudoeste 0 -- -- 64
2019-08-12 02:00:00 12.4 14 Oeste 21 Oeste 0 -- -- 60
2019-08-12 01:00:00 13.2 11 Oeste 16 Norte 0 -- -- 55
2019-08-12 00:00:00 14.5 6 Noroeste 26 Noroeste 0 -- -- 51
2019-08-11 23:00:00 15.1 10 Oeste 16 Oeste 0 -- -- 38
2019-08-11 22:00:00 17.4 13 Oeste 27 Oeste 0 -- -- 34
2019-08-11 21:00:00 20.2 22 Oeste 38 Oeste 0 -- -- 28
2019-08-11 20:00:00 20.9 19 Oeste 37 Oeste 0 -- -- 30
2019-08-11 19:00:00 21.7 18 Noroeste 37 Oeste 0 -- -- 31
2019-08-11 18:00:00 22.2 21 Oeste 40 Noroeste 0 -- -- 34
2019-08-11 17:00:00 22.3 19 Noroeste 42 Oeste 0 -- -- 36
2019-08-11 16:00:00 21.7 18 Noroeste 42 Oeste 0 -- -- 42
2019-08-11 15:00:00 21.4 21 Oeste 35 Oeste 0 -- -- 46
2019-08-11 14:00:00 20.1 22 Oeste 36 Noroeste 0 -- -- 53
2019-08-11 13:00:00 18.8 22 Oeste 35 Oeste 0 -- -- 60
2019-08-11 12:00:00 18.9 22 Oeste 32 Oeste 0 -- -- 61
2019-08-11 11:00:00 18.3 18 Oeste 26 Oeste 0 -- -- 66
2019-08-11 10:00:00 16.3 12 Oeste 15 Oeste 0 -- -- 71
2019-08-11 09:00:00 14.6 4 Sudoeste 11 Sudoeste 0 -- -- 79
2019-08-11 08:00:00 12 3 Sur 4 Sudoeste 0 -- -- 85
2019-08-11 07:00:00 13.4 0 Calma 9 Noroeste 0 -- -- 79
2019-08-11 06:00:00 15 2 Sudeste 21 Oeste 0 -- -- 74
2019-08-11 05:00:00 15.5 10 Oeste 27 Oeste 0 -- -- 72
2019-08-11 04:00:00 16.2 12 Oeste 22 Oeste 0 -- -- 71
2019-08-11 03:00:00 16.9 7 Oeste 18 Oeste 0 -- -- 71
2019-08-11 02:00:00 17.2 5 Sudoeste 9 Sudoeste 0.2 -- -- 75
2019-08-11 01:00:00 18 4 Sudoeste 19 Noroeste 0.4 -- -- 73
2019-08-11 00:00:00 20.8 7 Noroeste 23 Noroeste 0 -- -- 48
2019-08-10 23:00:00 22.4 16 Noroeste 27 Noroeste 0 -- -- 36
2019-08-10 22:00:00 23.4 6 Noroeste 18 Oeste 0 -- -- 38
2019-08-10 21:00:00 24.3 8 Noroeste 19 Noroeste 0 -- -- 36
2019-08-10 20:00:00 25.4 11 Noroeste 22 Noroeste 0 -- -- 33
2019-08-10 19:00:00 26.2 12 Noroeste 25 Oeste 0 -- -- 32
2019-08-10 18:00:00 26.8 12 Noroeste 26 Noroeste 0 -- -- 30
2019-08-10 17:00:00 27.2 11 Noroeste 25 Noroeste 0 -- -- 30
2019-08-10 16:00:00 26.4 10 Noroeste 21 Noroeste 0 -- -- 31
2019-08-10 15:00:00 25.5 8 Noroeste 18 Norte 0 -- -- 31
2019-08-10 14:00:00 23.1 5 Nordeste 14 Norte 0 -- -- 41
2019-08-10 13:00:00 21.2 6 Este 17 Este 0 -- -- 49
2019-08-10 12:00:00 19.9 4 Nordeste 13 Nordeste 0 -- -- 54
2019-08-10 11:00:00 18.5 5 Nordeste 10 Este 0 -- -- 58
2019-08-10 10:00:00 17.1 4 Norte 9 Norte 0 -- -- 63
2019-08-10 09:00:00 14.1 3 Sudoeste 13 Sudeste 0 -- -- 77
2019-08-10 08:00:00 11.5 9 Sudeste 13 Sudeste 0 -- -- 88
2019-08-10 07:00:00 10.5 0 Calma 6 Sur 0 -- -- 85
2019-08-10 06:00:00 11.2 5 Sudoeste 8 Sudoeste 0 -- -- 85
2019-08-10 05:00:00 12.1 5 Sudoeste 11 Sudoeste 0 -- -- 83
2019-08-10 04:00:00 12.7 6 Sudoeste 12 Oeste 0 -- -- 83
2019-08-10 03:00:00 13.2 10 Oeste 15 Sudoeste 0 -- -- 80
2019-08-10 02:00:00 14.8 5 Sudoeste 15 Sudoeste 0 -- -- 72
2019-08-10 01:00:00 15.3 10 Sudoeste 15 Sudoeste 0 -- -- 71
2019-08-10 00:00:00 15.9 9 Sudoeste 16 Sudoeste 0 -- -- 71
2019-08-09 23:00:00 17.3 10 Sudoeste 14 Sudoeste 0 -- -- 76
2019-08-09 22:00:00 18.5 4 Sur 21 Sudoeste 0 -- -- 76
2019-08-09 21:00:00 20.1 6 Sudoeste 17 Sudoeste 0 -- -- 71
2019-08-09 20:00:00 18.1 10 Sudoeste 34 Oeste 0 -- -- 78
2019-08-09 19:00:00 17.5 30 Oeste 54 Oeste 0 -- -- 80
2019-08-09 18:00:00 19.9 42 Oeste 67 Oeste 0 -- -- 70
2019-08-09 17:00:00 23.9 34 Oeste 51 Oeste -- -- -- 64
2019-08-09 16:00:00 27.1 34 Oeste 47 Oeste 0 -- -- 54
2019-08-09 15:00:00 24.5 32 Oeste 48 Oeste 0 -- -- 61
2019-08-09 14:00:00 25.3 28 Oeste 44 Oeste 0 -- -- 58
2019-08-09 13:00:00 26.1 28 Oeste 50 Oeste 0 -- -- 51
2019-08-09 12:00:00 25.6 27 Oeste 50 Oeste 0 -- -- 53
2019-08-09 11:00:00 26 21 Sudoeste 47 Oeste 0 -- -- 53
2019-08-09 10:00:00 23.6 22 Oeste 31 Oeste 0 -- -- 60
2019-08-09 09:00:00 22 5 Sudoeste 15 Sudoeste 0 -- -- 53
2019-08-09 08:00:00 16.9 5 Sudoeste 12 Oeste 0 -- -- 64
2019-08-09 07:00:00 16.5 3 Sur 12 Sudeste 0 -- -- 67
2019-08-09 06:00:00 17 4 Sur 16 Oeste 0 -- -- 66
2019-08-09 05:00:00 19.3 17 Oeste 22 Oeste 0 -- -- 64
2019-08-09 04:00:00 19.1 11 Sudoeste 16 Sudoeste 0 -- -- 64
2019-08-09 03:00:00 19.2 6 Sudoeste 14 Sudoeste 0 -- -- 62
2019-08-09 02:00:00 21.5 10 Sudoeste 17 Sudoeste 0 -- -- 61
2019-08-09 01:00:00 20.9 7 Sudoeste 10 Sudoeste 0 -- -- 56
2019-08-09 00:00:00 22.5 2 Sur 10 Oeste 0 -- -- 49
2019-08-08 23:00:00 24.1 4 Sudoeste 12 Sudoeste 0 -- -- 43
2019-08-08 22:00:00 26.1 9 Sudoeste 24 Oeste 0 -- -- 39
2019-08-08 21:00:00 28.3 20 Oeste 44 Sudoeste 0 -- -- 35
2019-08-08 20:00:00 30 28 Oeste 46 Oeste 0 -- -- 31
2019-08-08 19:00:00 31.2 24 Oeste 45 Oeste 0 -- -- 29
2019-08-08 18:00:00 31.5 28 Oeste 42 Noroeste 0 -- -- 31
2019-08-08 17:00:00 31.9 11 Oeste 19 Oeste 0 -- -- 32
2019-08-08 16:00:00 29.3 4 Este 14 Sudeste 0 -- -- 38
2019-08-08 15:00:00 28.9 6 Sudeste 21 Sur 0 -- -- 40
2019-08-08 14:00:00 29.6 6 Sudeste 24 Sudoeste 0 -- -- 38
2019-08-08 13:00:00 28.6 7 Sudeste 23 Sudeste -- -- -- 42
2019-08-08 12:00:00 26.9 10 Oeste 28 Oeste 0 -- -- 46
2019-08-08 11:00:00 25.4 17 Oeste 27 Oeste 0 -- -- 51
2019-08-08 10:00:00 23.7 9 Sudeste 14 Sudeste 0 -- -- 51
2019-08-08 09:00:00 20.1 5 Sudeste 7 Sudeste 0 -- -- 61
2019-08-08 08:00:00 17.4 3 Sudeste 5 Sudeste 0 -- -- 67
2019-08-08 07:00:00 16.5 0 Calma 10 Sudeste 0 -- -- 65
2019-08-08 06:00:00 17.7 8 Sudeste 14 Sudeste 0 -- -- 64
2019-08-08 05:00:00 18.9 2 Noroeste 14 Sudoeste 0 -- -- 60
2019-08-08 04:00:00 19.8 8 Sudoeste 14 Oeste 0 -- -- 60
2019-08-08 03:00:00 19.1 3 Sudoeste 12 Sur 0 -- -- 59
2019-08-08 02:00:00 18.8 9 Sudoeste 14 Sur 0 -- -- 59
2019-08-08 01:00:00 19.6 11 Sudoeste 18 Sudoeste 0 -- -- 54
2019-08-08 00:00:00 18.7 8 Sudoeste 15 Sudoeste 0 -- -- 58
2019-08-07 23:00:00 19.3 5 Sudoeste 10 Oeste 0 -- -- 55
2019-08-07 22:00:00 21 6 Oeste 14 Oeste 0 -- -- 49
2019-08-07 21:00:00 22.9 12 Oeste 31 Oeste 0 -- -- 45
2019-08-07 20:00:00 23.4 23 Oeste 31 Oeste 0 -- -- 45
2019-08-07 19:00:00 23.4 15 Sudoeste 31 Oeste 0 -- -- 47
2019-08-07 18:00:00 24.1 20 Oeste 30 Oeste 0 -- -- 41
2019-08-07 17:00:00 23.2 9 Sur 29 Sur 0 -- -- 45
2019-08-07 16:00:00 23.8 15 Sudoeste 31 Sudoeste 0 -- -- 47
2019-08-07 15:00:00 24 10 Sur 20 Sur 0 -- -- 45
2019-08-07 14:00:00 24.1 6 Sur 13 Sur 0 -- -- 54
2019-08-07 13:00:00 23 2 Sudoeste 9 Sudeste 0 -- -- 57
2019-08-07 12:00:00 22.4 3 Sur 8 Oeste 0 -- -- 60
2019-08-07 11:00:00 21.6 3 Noroeste 13 Noroeste 0 -- -- 63
2019-08-07 10:00:00 20.3 10 Oeste 16 Oeste 0 -- -- 66
2019-08-07 09:00:00 19.4 7 Oeste 14 Oeste 0 -- -- 69
2019-08-07 08:00:00 18.5 9 Oeste 18 Oeste 0 -- -- 68
2019-08-07 07:00:00 18.6 4 Sudoeste 9 Oeste 0 -- -- 61
2019-08-07 06:00:00 19.2 9 Oeste 10 Sudoeste 0 -- -- 59
2019-08-07 05:00:00 20.5 3 Este 11 Oeste 0 -- -- 53
2019-08-07 04:00:00 21.1 8 Oeste 11 Oeste 0 -- -- 53
2019-08-07 03:00:00 21.6 5 Oeste 15 Oeste 0 -- -- 51
2019-08-07 02:00:00 22.1 10 Oeste 15 Oeste 0 -- -- 47
2019-08-07 01:00:00 22.7 13 Oeste 17 Oeste 0 -- -- 45
2019-08-07 00:00:00 23.6 7 Noroeste 15 Noroeste 0 -- -- 43
2019-08-06 23:00:00 24.9 9 Noroeste 21 Noroeste 0 -- -- 39
2019-08-06 22:00:00 26.9 18 Oeste 32 Oeste 0 -- -- 32
2019-08-06 21:00:00 28.6 25 Oeste 34 Oeste 0 -- -- 29
2019-08-06 20:00:00 30.1 26 Oeste 36 Oeste 0 -- -- 25
2019-08-06 19:00:00 30.9 13 Noroeste 35 Oeste 0 -- -- 29
2019-08-06 18:00:00 31.8 14 Oeste 30 Oeste 0 -- -- 27
2019-08-06 17:00:00 32.7 10 Noroeste 28 Oeste 0 -- -- 24
2019-08-06 16:00:00 31.9 12 Nordeste 26 Noroeste 0 -- -- 25
2019-08-06 15:00:00 31.5 10 Noroeste 28 Oeste 0 -- -- 26
2019-08-06 14:00:00 30.6 12 Oeste 30 Oeste 0 -- -- 29
2019-08-06 13:00:00 29.5 9 Noroeste 23 Oeste 0 -- -- 30
2019-08-06 12:00:00 28.8 4 Noroeste 15 Oeste 0 -- -- 32
2019-08-06 11:00:00 26.4 5 Este 14 Este 0 -- -- 39
2019-08-06 10:00:00 24.1 6 Sudeste 15 Sudeste 0 -- -- 46
2019-08-06 09:00:00 20.5 9 Sudeste 13 Sudeste 0 -- -- 45
2019-08-06 08:00:00 17.2 3 Sudoeste 11 Sudoeste 0 -- -- 58
2019-08-06 07:00:00 16.3 4 Sudoeste 11 Sudoeste 0 -- -- 57
2019-08-06 06:00:00 18.4 5 Sudoeste 13 Sur 0 -- -- 54
2019-08-06 05:00:00 18.6 8 Sudoeste 15 Sur 0 -- -- 49
2019-08-06 04:00:00 19.4 12 Sudoeste 17 Sudoeste 0 -- -- 42
2019-08-06 03:00:00 19.7 9 Sudoeste 13 Sudoeste 0 -- -- 36
2019-08-06 02:00:00 19.9 7 Sudoeste 14 Sudoeste 0 -- -- 34
2019-08-06 01:00:00 21.6 10 Sudoeste 14 Sudoeste 0 -- -- 30
2019-08-06 00:00:00 22.8 8 Sudoeste 13 Sudoeste 0 -- -- 34
2019-08-05 23:00:00 24.1 9 Sudoeste 15 Oeste 0 -- -- 29
2019-08-05 22:00:00 26 10 Oeste 22 Noroeste 0 -- -- 27
2019-08-05 21:00:00 29.7 17 Noroeste 28 Noroeste 0 -- -- 24
2019-08-05 20:00:00 31 22 Oeste 35 Oeste 0 -- -- 21
2019-08-05 19:00:00 31.8 16 Oeste 31 Oeste 0 -- -- 20
2019-08-05 18:00:00 31.9 15 Oeste 36 Oeste 0 -- -- 22
2019-08-05 17:00:00 32.5 15 Oeste 32 Oeste 0 -- -- 24
2019-08-05 16:00:00 32.1 18 Noroeste 35 Oeste 0 -- -- 22
2019-08-05 15:00:00 31.3 17 Noroeste 32 Oeste 0 -- -- 26
2019-08-05 14:00:00 31.3 14 Noroeste 25 Noroeste 0 -- -- 25
2019-08-05 13:00:00 30.1 5 Nordeste 14 Oeste 0 -- -- 27
2019-08-05 12:00:00 27.4 4 Nordeste 12 Nordeste 0 -- -- 38
2019-08-05 11:00:00 25 4 Noroeste 9 Noroeste 0 -- -- 45
2019-08-05 10:00:00 22.8 4 Noroeste 8 Norte 0 -- -- 50
2019-08-05 09:00:00 20.1 3 Nordeste 6 Sur 0 -- -- 53
2019-08-05 08:00:00 15.8 4 Sur 8 Sur 0 -- -- 64
2019-08-05 07:00:00 15.8 5 Sur 10 Sur 0 -- -- 62
2019-08-05 06:00:00 17.9 4 Sudoeste 13 Sudoeste 0 -- -- 58
2019-08-05 05:00:00 18.8 10 Sudoeste 14 Sudoeste 0 -- -- 55
2019-08-05 04:00:00 19.5 8 Sudoeste 13 Sudoeste 0 -- -- 51
2019-08-05 03:00:00 20.9 10 Sudoeste 19 Sur 0 -- -- 44
2019-08-05 02:00:00 21.5 10 Sudoeste 14 Sudoeste 0 -- -- 36
2019-08-05 01:00:00 21.9 8 Sudoeste 13 Sudoeste 0 -- -- 37
2019-08-05 00:00:00 23 3 Sudoeste 7 Oeste 0 -- -- 36
2019-08-04 23:00:00 24.9 3 Noroeste 23 Oeste 0 -- -- 34
2019-08-04 22:00:00 27.4 8 Oeste 21 Oeste 0 -- -- 31
2019-08-04 21:00:00 30.1 11 Noroeste 22 Noroeste 0 -- -- 26
2019-08-04 20:00:00 31.3 12 Noroeste 29 Oeste 0 -- -- 24
2019-08-04 19:00:00 31.9 13 Noroeste 33 Oeste 0 -- -- 26
2019-08-04 18:00:00 32.4 11 Noroeste 32 Oeste 0 -- -- 26
2019-08-04 17:00:00 32.4 12 Noroeste 29 Oeste 0 -- -- 25
2019-08-04 16:00:00 32.2 16 Noroeste 39 Oeste 0 -- -- 25
2019-08-04 15:00:00 31.5 8 Noroeste 24 Oeste 0 -- -- 27
2019-08-04 14:00:00 30.4 10 Oeste 26 Oeste 0 -- -- 29
2019-08-04 13:00:00 29 8 Noroeste 19 Oeste 0 -- -- 34
2019-08-04 12:00:00 27.3 6 Noroeste 14 Norte 0 -- -- 42
2019-08-04 11:00:00 25.1 6 Noroeste 12 Oeste 0 -- -- 47
2019-08-04 10:00:00 22.7 4 Oeste 9 Oeste 0 -- -- 52
2019-08-04 09:00:00 20.5 2 Norte 5 Oeste 0 -- -- 50
2019-08-04 08:00:00 17.6 4 Sudeste 11 Sudeste 0 -- -- 56
2019-08-04 07:00:00 17.3 3 Este 9 Sudeste 0 -- -- 57
2019-08-04 06:00:00 18.9 2 Sudoeste 15 Oeste 0 -- -- 55
2019-08-04 05:00:00 19.7 8 Sudoeste 16 Oeste 0 -- -- 52
2019-08-04 04:00:00 21.1 10 Sudoeste 17 Sudoeste 0 -- -- 47
2019-08-04 03:00:00 21.9 10 Sudoeste 19 Sudoeste 0 -- -- 43
2019-08-04 02:00:00 22.5 10 Sudoeste 17 Sudoeste 0 -- -- 37
2019-08-04 01:00:00 23.3 10 Sudoeste 19 Sudoeste 0 -- -- 32
2019-08-04 00:00:00 23.7 10 Sudoeste 17 Sudoeste 0 -- -- 33
2019-08-03 23:00:00 25.3 8 Sudoeste 14 Sudoeste 0 -- -- 30
2019-08-03 22:00:00 26.8 8 Oeste 23 Noroeste 0 -- -- 27
2019-08-03 21:00:00 30 19 Oeste 32 Noroeste 0 -- -- 25
2019-08-03 20:00:00 31.1 21 Noroeste 36 Oeste 0 -- -- 22
2019-08-03 19:00:00 32.3 15 Oeste 32 Oeste 0 -- -- 20
2019-08-03 18:00:00 32.8 14 Oeste 36 Oeste 0 -- -- 16
2019-08-03 17:00:00 33.4 16 Oeste 34 Oeste 0 -- -- 17
2019-08-03 16:00:00 32.9 6 Norte 27 Oeste 0 -- -- 17
2019-08-03 15:00:00 32.5 15 Oeste 26 Oeste 0 -- -- 17
2019-08-03 14:00:00 32.2 14 Oeste 26 Oeste 0 -- -- 17
2019-08-03 13:00:00 30.8 9 Noroeste 23 Noroeste 0 -- -- 20
2019-08-03 12:00:00 29.5 9 Noroeste 17 Oeste 0 -- -- 25
2019-08-03 11:00:00 27.1 6 Noroeste 11 Oeste 0 -- -- 28
2019-08-03 10:00:00 24 5 Noroeste 9 Norte 0 -- -- 32
2019-08-03 09:00:00 20.3 2 Sudoeste 10 Sudoeste 0 -- -- 42
2019-08-03 08:00:00 16.5 5 Sudeste 13 Sudoeste 0 -- -- 44
2019-08-03 07:00:00 15.3 5 Sur 9 Sur 0 -- -- 45
2019-08-03 06:00:00 16.5 4 Sudeste 8 Sudoeste 0 -- -- 42
2019-08-03 05:00:00 17.3 5 Sudoeste 10 Sur 0 -- -- 42
2019-08-03 04:00:00 18.8 5 Sur 15 Sudoeste 0 -- -- 38
2019-08-03 03:00:00 19.1 8 Sur 15 Sudoeste 0 -- -- 37
2019-08-03 02:00:00 19.7 9 Sudoeste 13 Sudoeste 0 -- -- 35
2019-08-03 01:00:00 20.7 6 Sur 10 Sudoeste 0 -- -- 33
2019-08-03 00:00:00 22 5 Sudoeste 12 Sur 0 -- -- 31
2019-08-02 23:00:00 23.3 6 Sudoeste 9 Sudoeste 0 -- -- 29
2019-08-02 22:00:00 26.7 3 Noroeste 17 Noroeste 0 -- -- 26
2019-08-02 21:00:00 29.9 10 Noroeste 23 Noroeste 0 -- -- 22
2019-08-02 20:00:00 31.2 13 Noroeste 26 Noroeste 0 -- -- 23
2019-08-02 19:00:00 31.8 13 Norte 27 Noroeste 0 -- -- 22
2019-08-02 18:00:00 32.2 15 Norte 30 Noroeste 0 -- -- 22
2019-08-02 17:00:00 32.4 11 Noroeste 30 Noroeste 0 -- -- 22
2019-08-02 16:00:00 32.2 13 Norte 28 Nordeste 0 -- -- 22
2019-08-02 15:00:00 31.6 11 Norte 23 Norte 0 -- -- 24
2019-08-02 14:00:00 30.8 12 Noroeste 27 Noroeste 0 -- -- 25
2019-08-02 13:00:00 29.7 11 Noroeste 19 Noroeste 0 -- -- 27
2019-08-02 12:00:00 27.4 8 Norte 19 Norte 0 -- -- 31
2019-08-02 11:00:00 24.8 5 Nordeste 12 Nordeste 0 -- -- 33
2019-08-02 10:00:00 22.1 5 Nordeste 9 Este 0 -- -- 37
2019-08-02 09:00:00 18.6 3 Este 4 Este 0 -- -- 44
2019-08-02 08:00:00 13.9 0 Calma 8 Sur 0 -- -- 54
2019-08-02 07:00:00 13.2 5 Sur 9 Sur 0 -- -- 56
2019-08-02 06:00:00 14.8 4 Sur 6 Sur 0 -- -- 50
2019-08-02 05:00:00 15.3 0 Calma 12 Sudoeste 0 -- -- 47
2019-08-02 04:00:00 18 10 Sudoeste 15 Sur 0 -- -- 41
2019-08-02 03:00:00 17.7 6 Sudoeste 14 Sudoeste 0 -- -- 39
2019-08-02 02:00:00 18.9 5 Sur 13 Sudoeste 0 -- -- 38
2019-08-02 01:00:00 19.3 8 Sudoeste 13 Sudoeste 0 -- -- 36
2019-08-02 00:00:00 20.7 5 Sur 9 Sudoeste 0 -- -- 34
2019-08-01 23:00:00 21.8 6 Sudoeste 8 Sudoeste 0 -- -- 32
2019-08-01 22:00:00 25.3 4 Noroeste 13 Noroeste 0 -- -- 27
2019-08-01 21:00:00 28.4 8 Noroeste 24 Oeste 0 -- -- 25
2019-08-01 20:00:00 28.9 12 Noroeste 25 Norte 0 -- -- 25
2019-08-01 19:00:00 29 15 Noroeste 28 Noroeste 0 -- -- 25
2019-08-01 18:00:00 29.8 17 Noroeste 40 Oeste 0 -- -- 24
2019-08-01 17:00:00 30.2 12 Noroeste 28 Noroeste 0 -- -- 23
2019-08-01 16:00:00 29.6 8 Oeste 29 Oeste 0 -- -- 24
2019-08-01 15:00:00 28.6 12 Noroeste 31 Oeste 0 -- -- 26
2019-08-01 14:00:00 27.7 15 Noroeste 32 Noroeste 0 -- -- 28
2019-08-01 13:00:00 26.5 20 Oeste 34 Oeste 0 -- -- 32
2019-08-01 12:00:00 25 17 Noroeste 30 Oeste 0 -- -- 38
2019-08-01 11:00:00 22.6 8 Noroeste 19 Oeste 0 -- -- 45
2019-08-01 10:00:00 20.6 10 Oeste 17 Oeste 0 -- -- 50
2019-08-01 09:00:00 17.6 10 Oeste 14 Oeste 0 -- -- 60
2019-08-01 08:00:00 15.4 8 Oeste 14 Oeste 0 -- -- 66
2019-08-01 07:00:00 15.8 10 Oeste 13 Oeste 0 -- -- 58
2019-08-01 06:00:00 17.4 7 Oeste 15 Sur 0 -- -- 53
2019-08-01 05:00:00 18.4 4 Sudoeste 13 Sur 0 -- -- 55
2019-08-01 04:00:00 18.4 4 Norte 10 Sudeste 0 -- -- 47
2019-08-01 03:00:00 19.5 8 Sudeste 11 Sudeste 0 -- -- 47
2019-08-01 02:00:00 20.1 4 Sur 9 Sudeste 0 -- -- 45
2019-08-01 01:00:00 21.1 0 Calma 8 Oeste 0 -- -- 43
2019-08-01 00:00:00 21.7 8 Este 12 Este 0 -- -- 41
2019-07-31 23:00:00 22.6 0 Calma 8 Oeste 0 -- -- 38
2019-07-31 22:00:00 24.4 4 Noroeste 15 Noroeste 0 -- -- 35
2019-07-31 21:00:00 26.2 12 Norte 24 Noroeste 0 -- -- 33
2019-07-31 20:00:00 27.7 17 Noroeste 28 Noroeste 0 -- -- 32
2019-07-31 19:00:00 29.6 17 Noroeste 35 Oeste 0 -- -- 30
2019-07-31 18:00:00 30.6 20 Oeste 45 Oeste 0 -- -- 27
2019-07-31 17:00:00 31.5 14 Sur 61 Sudeste -- -- -- 20
2019-07-31 16:00:00 30.9 18 Sudeste 35 Sudeste 0 -- -- 25
2019-07-31 15:00:00 30.4 14 Sudeste 28 Sudeste 0 -- -- 27
2019-07-31 14:00:00 28.6 13 Sudeste 30 Sudeste 0 -- -- 35
2019-07-31 13:00:00 26.2 12 Nordeste 20 Nordeste 0 -- -- 38
2019-07-31 12:00:00 23.3 8 Norte 15 Norte 0 -- -- 41
2019-07-31 11:00:00 20.2 7 Norte 13 Norte 0 -- -- 44
2019-07-31 10:00:00 17.2 3 Nordeste 7 Norte 0 -- -- 41
2019-07-31 09:00:00 13.4 0 Calma 4 Oeste 0 -- -- 51
2019-07-31 08:00:00 9.2 0 Calma 6 Sudoeste 0 -- -- 59
2019-07-31 07:00:00 9 0 Calma 6 Sudeste 0 -- -- 57
2019-07-31 06:00:00 9.4 4 Sur 7 Sur 0 -- -- 57
2019-07-31 05:00:00 10.5 3 Sur 9 Sudoeste 0 -- -- 53
2019-07-31 04:00:00 10.9 5 Sudoeste 8 Sudoeste 0 -- -- 52
2019-07-31 03:00:00 12.5 0 Calma 4 Sudoeste 0 -- -- 48
2019-07-31 02:00:00 14.4 3 Sudoeste 17 Este 0 -- -- 42
2019-07-31 01:00:00 16.5 12 Este 19 Nordeste 0 -- -- 41
2019-07-31 00:00:00 17.3 10 Este 14 Nordeste 0 -- -- 38
2019-07-30 23:00:00 18.4 8 Nordeste 16 Norte 0 -- -- 36
2019-07-30 22:00:00 21.3 12 Norte 20 Norte 0 -- -- 33
2019-07-30 21:00:00 23.7 13 Norte 20 Noroeste 0 -- -- 28
2019-07-30 20:00:00 24.2 11 Noroeste 24 Noroeste 0 -- -- 24
2019-07-30 19:00:00 24.7 12 Norte 23 Noroeste 0 -- -- 24
2019-07-30 18:00:00 24.8 10 Norte 20 Norte 0 -- -- 22
2019-07-30 17:00:00 24.4 9 Norte 28 Norte 0 -- -- 23
2019-07-30 16:00:00 23.4 11 Norte 22 Norte 0 -- -- 28
2019-07-30 15:00:00 22.4 10 Norte 23 Noroeste 0 -- -- 31
2019-07-30 14:00:00 21.3 8 Noroeste 22 Noroeste 0 -- -- 36
2019-07-30 13:00:00 20.2 9 Norte 18 Noroeste 0 -- -- 39
2019-07-30 12:00:00 17.8 4 Norte 13 Noroeste 0 -- -- 44
2019-07-30 11:00:00 15.9 6 Noroeste 15 Noroeste 0 -- -- 51
2019-07-30 10:00:00 14.4 4 Noroeste 12 Norte 0 -- -- 55
2019-07-30 09:00:00 12.2 8 Oeste 12 Oeste 0 -- -- 64
2019-07-30 08:00:00 10.3 8 Oeste 12 Oeste 0 -- -- 69
2019-07-30 07:00:00 9.4 9 Oeste 13 Oeste 0 -- -- 70
2019-07-30 06:00:00 10.5 5 Noroeste 17 Noroeste 0 -- -- 65
2019-07-30 05:00:00 11.1 8 Oeste 17 Oeste 0 -- -- 62
2019-07-30 04:00:00 12.7 15 Oeste 20 Oeste 0 -- -- 57
2019-07-30 03:00:00 13.1 14 Oeste 19 Oeste 0 -- -- 55
2019-07-30 02:00:00 13.7 13 Oeste 17 Oeste 0 -- -- 50
2019-07-30 01:00:00 14.8 12 Oeste 17 Oeste 0 -- -- 48
2019-07-30 00:00:00 16.1 9 Oeste 14 Oeste 0 -- -- 42
2019-07-29 23:00:00 17.9 12 Oeste 20 Oeste 0 -- -- 36
2019-07-29 22:00:00 20.3 15 Oeste 29 Noroeste 0 -- -- 31
2019-07-29 21:00:00 22.9 21 Noroeste 36 Oeste 0 -- -- 28
2019-07-29 20:00:00 24.5 20 Noroeste 42 Noroeste 0 -- -- 27
2019-07-29 19:00:00 25.1 24 Noroeste 43 Noroeste 0 -- -- 27
2019-07-29 18:00:00 26.1 23 Noroeste 42 Oeste 0 -- -- 28
2019-07-29 17:00:00 26 27 Noroeste 44 Noroeste 0 -- -- 31
2019-07-29 16:00:00 26.1 22 Oeste 39 Noroeste 0 -- -- 37
2019-07-29 15:00:00 25.7 18 Oeste 32 Oeste 0 -- -- 37
2019-07-29 14:00:00 24.3 12 Oeste 26 Oeste 0 -- -- 38
2019-07-29 13:00:00 23.1 14 Noroeste 25 Noroeste 0 -- -- 37
2019-07-29 12:00:00 21.7 11 Oeste 22 Oeste 0 -- -- 40
2019-07-29 11:00:00 20.5 11 Noroeste 22 Oeste 0 -- -- 46
2019-07-29 10:00:00 19.2 9 Noroeste 18 Oeste 0 -- -- 44
2019-07-29 09:00:00 17.2 5 Oeste 10 Oeste 0 -- -- 52
2019-07-29 08:00:00 14.2 2 Sudoeste 4 Oeste 0 -- -- 66
2019-07-29 07:00:00 14.9 4 Sudoeste 11 Sudoeste 0 -- -- 65
2019-07-29 06:00:00 15.4 6 Sudoeste 14 Oeste 0 -- -- 58
2019-07-29 05:00:00 16.6 6 Sudoeste 24 Oeste 0 -- -- 55
2019-07-29 04:00:00 17.6 9 Oeste 17 Sudoeste 0 -- -- 43
2019-07-29 03:00:00 17.6 11 Sudoeste 15 Sudoeste 0 -- -- 34
2019-07-29 02:00:00 18.3 11 Sudoeste 16 Sudoeste 0 -- -- 35
2019-07-29 01:00:00 18.3 10 Sudoeste 15 Sudoeste 0 -- -- 37
2019-07-29 00:00:00 17.8 10 Sudoeste 20 Sudoeste 0 -- -- 37
2019-07-28 23:00:00 19.7 4 Sur 8 Sudoeste 0 -- -- 31
2019-07-28 22:00:00 22.7 4 Nordeste 19 Noroeste 0 -- -- 27
2019-07-28 21:00:00 25.7 12 Noroeste 23 Noroeste 0 -- -- 27
2019-07-28 20:00:00 26.2 12 Noroeste 23 Oeste 0 -- -- 27
2019-07-28 19:00:00 26.4 14 Noroeste 32 Oeste 0 -- -- 24
2019-07-28 18:00:00 26.6 11 Norte 29 Noroeste 0 -- -- 23
2019-07-28 17:00:00 26.1 14 Oeste 25 Oeste 0 -- -- 28
2019-07-28 16:00:00 25.9 9 Norte 24 Oeste 0 -- -- 30
2019-07-28 15:00:00 24.9 9 Oeste 28 Norte 0 -- -- 34
2019-07-28 14:00:00 24.1 8 Noroeste 19 Noroeste 0 -- -- 36
2019-07-28 13:00:00 22.5 8 Norte 20 Nordeste 0 -- -- 40
2019-07-28 12:00:00 21.3 6 Norte 15 Nordeste 0 -- -- 42
2019-07-28 11:00:00 19 5 Este 14 Nordeste 0 -- -- 49
2019-07-28 10:00:00 16.6 6 Norte 10 Nordeste 0 -- -- 63
2019-07-28 09:00:00 13.9 3 Nordeste 5 Sudeste 0 -- -- 72
2019-07-28 08:00:00 10.4 4 Este 5 Sudeste 0 -- -- 83
2019-07-28 07:00:00 8.8 4 Sudoeste 9 Sudoeste 0 -- -- 86
2019-07-28 06:00:00 9 4 Sudoeste 8 Sudoeste 0 -- -- 84
2019-07-28 05:00:00 9.8 2 Sur 6 Sudoeste 0 -- -- 83
2019-07-28 04:00:00 11 0 Calma 5 Sudoeste 0 -- -- 79
2019-07-28 03:00:00 12.4 2 Oeste 11 Norte 0 -- -- 77
2019-07-28 02:00:00 13.8 6 Norte 17 Nordeste 0 -- -- 74
2019-07-28 01:00:00 14.9 13 Nordeste 23 Nordeste 0 -- -- 71
2019-07-28 00:00:00 15.6 11 Nordeste 27 Nordeste 0 -- -- 73
2019-07-27 23:00:00 17.8 15 Norte 23 Norte 0 -- -- 63
2019-07-26 12:00:00 -- -- -- -- -- -- -- -- --
2019-07-26 11:00:00 -- -- -- -- -- -- -- -- --
2019-07-26 10:00:00 -- -- -- -- -- -- -- -- --
2019-07-26 09:00:00 -- -- -- -- -- -- -- -- --
2019-07-26 08:00:00 17.8 8 Noroeste 14 Noroeste 0 -- -- 78
2019-07-26 07:00:00 17.8 5 Noroeste 14 Noroeste 0 -- -- 77
2019-07-26 06:00:00 18.2 6 Noroeste 17 Oeste 0 -- -- 76
2019-07-26 05:00:00 18.5 6 Noroeste 22 Noroeste 0 -- -- 76
2019-07-26 04:00:00 19.5 13 Noroeste 22 Noroeste 0 -- -- 75
2019-07-26 03:00:00 20.3 17 Oeste 31 Oeste 0 -- -- 69
2019-07-26 02:00:00 21.7 17 Noroeste 31 Noroeste 0 -- -- 61
2019-07-26 01:00:00 22.6 3 Nordeste 12 Noroeste 0 -- -- 51
2019-07-26 00:00:00 23.5 11 Noroeste 30 Oeste 0 -- -- 49
2019-07-25 23:00:00 24.7 25 Oeste 36 Oeste 0 -- -- 41
2019-07-25 22:00:00 26.3 19 Oeste 37 Oeste 0 -- -- 35
2019-07-25 21:00:00 28.8 23 Oeste 36 Oeste 0 -- -- 31
2019-07-25 20:00:00 30.9 13 Sudoeste 30 Sudoeste 0 -- -- 23
2019-07-25 19:00:00 32.1 10 Sudoeste 35 Sur 0 -- -- 23
2019-07-25 18:00:00 32.9 17 Sudoeste 33 Sudoeste 0 -- -- 19
2019-07-25 17:00:00 33.2 15 Sur 36 Sudoeste 0 -- -- 20
2019-07-25 16:00:00 33 8 Sur 33 Oeste 0 -- -- 22
2019-07-25 15:00:00 33.6 10 Sur 29 Sur 0 -- -- 18
2019-07-25 14:00:00 33.6 14 Sudoeste 31 Sudoeste 0 -- -- 20
2019-07-25 13:00:00 32.7 15 Sur 39 Sur 0 -- -- 22
2019-07-25 12:00:00 31.7 13 Sur 34 Sudoeste 0 -- -- 24
2019-07-25 11:00:00 30.6 6 Sudeste 17 Sudeste 0 -- -- 30
2019-07-25 10:00:00 28.2 8 Sudeste 17 Sur 0 -- -- 34
2019-07-25 09:00:00 23.2 8 Sudeste 14 Sudeste 0 -- -- 43
2019-07-25 08:00:00 18.5 3 Sudoeste 9 Sur 0 -- -- 50
2019-07-25 07:00:00 18.1 7 Sur 12 Sur 0 -- -- 51
2019-07-25 06:00:00 18.5 5 Sur 11 Sur 0 -- -- 50
2019-07-25 05:00:00 19.6 4 Sur 10 Sudoeste 0 -- -- 49
2019-07-25 04:00:00 20.5 9 Sudoeste 14 Sudoeste 0 -- -- 47
2019-07-25 03:00:00 22.4 6 Sudoeste 20 Sudoeste 0 -- -- 44
2019-07-25 02:00:00 23.6 13 Oeste 33 Oeste 0 -- -- 42
2019-07-25 01:00:00 24.4 11 Sudoeste 16 Sudoeste 0 -- -- 39
2019-07-25 00:00:00 25.6 11 Sudoeste 16 Sur 0 -- -- 37
2019-07-24 23:00:00 26.7 8 Sudoeste 13 Sudoeste 0 -- -- 34
2019-07-24 22:00:00 29 5 Sudoeste 19 Sudoeste 0 -- -- 30
2019-07-24 21:00:00 31.6 10 Sudoeste 24 Sudoeste 0 -- -- 26
2019-07-24 20:00:00 32.4 11 Sudoeste 28 Sudoeste 0 -- -- 24
2019-07-24 19:00:00 33.8 15 Sudoeste 48 Sur 0 -- -- 21
2019-07-24 18:00:00 34.3 12 Sur 35 Sur 0 -- -- 21
2019-07-24 17:00:00 34.9 13 Sur 30 Sudoeste 0 -- -- 20
2019-07-24 16:00:00 34.5 17 Sur 39 Sudeste 0 -- -- 22
2019-07-24 15:00:00 34.8 15 Sur 39 Sudoeste 0 -- -- 22
2019-07-24 14:00:00 34.2 14 Sur 39 Sudeste 0 -- -- 23
2019-07-24 13:00:00 32.8 14 Sur 32 Sur 0 -- -- 26
2019-07-24 12:00:00 31.9 15 Sur 33 Sur 0 -- -- 28
2019-07-24 11:00:00 30.1 19 Sur 37 Sudeste 0 -- -- 29
2019-07-24 10:00:00 28.2 22 Sur 38 Sudeste 0 -- -- 31
2019-07-24 09:00:00 26.4 19 Sur 37 Sudeste 0 -- -- 36
2019-07-24 08:00:00 22.8 12 Sur 22 Sudeste 0 -- -- 43
2019-07-24 07:00:00 20.2 4 Sur 14 Noroeste 0 -- -- 50
2019-07-24 06:00:00 19.4 3 Este 10 Sur 0 -- -- 51
2019-07-24 05:00:00 21.3 4 Sudeste 17 Sudeste 0 -- -- 45
2019-07-24 04:00:00 22.3 12 Sudeste 22 Sudeste 0 -- -- 44
2019-07-24 03:00:00 23.2 12 Sur 28 Sur 0 -- -- 43
2019-07-24 02:00:00 22.7 13 Sudeste 21 Sur 0 -- -- 46
2019-07-24 01:00:00 24 7 Sur 31 Sudoeste 0 -- -- 46
2019-07-24 00:00:00 24.6 4 Sur 19 Este 0 -- -- 40
2019-07-23 23:00:00 24.7 9 Sudeste 35 Sur 0 -- -- 38
2019-07-23 22:00:00 25.8 28 Sudeste 54 Sur 0 -- -- 34
2019-07-23 21:00:00 30 35 Sur 58 Sur 0 -- -- 28
2019-07-23 20:00:00 32.2 5 Sur 30 Sudeste 0 -- -- 26
2019-07-23 19:00:00 33 12 Sur 32 Sur 0 -- -- 25
2019-07-23 18:00:00 33.9 23 Sudeste 40 Sudeste 0 -- -- 26
2019-07-23 17:00:00 34.5 15 Sur 45 Sur 0 -- -- 25
2019-07-23 16:00:00 34.8 14 Sur 31 Sudoeste 0 -- -- 26
2019-07-23 15:00:00 33.9 18 Sur 37 Sur 0 -- -- 26
2019-07-23 14:00:00 32.2 20 Sudeste 36 Sudeste 0 -- -- 27
2019-07-23 13:00:00 30.4 23 Sudeste 35 Sudoeste 0 -- -- 33
2019-07-23 12:00:00 27.5 18 Sur 49 Sudoeste 0 -- -- 37
2019-07-23 11:00:00 27 21 Sudeste 31 Sudeste 0 -- -- 42
2019-07-23 10:00:00 22.6 14 Sudeste 21 Sudeste 0 -- -- 65
2019-07-23 09:00:00 20.2 11 Sudeste 16 Sudeste 0 -- -- 74
2019-07-23 08:00:00 19.5 9 Norte 14 Norte 0.2 -- -- 72
2019-07-23 07:00:00 21 10 Sur 28 Sur 0.2 -- -- 61
2019-07-23 06:00:00 21 6 Sur 37 Sudoeste 0.2 -- -- 66
2019-07-23 05:00:00 22.1 18 Sudeste 24 Este 0 -- -- 58
2019-07-23 04:00:00 23.2 6 Sudeste 24 Sudeste 0 -- -- 44
2019-07-23 03:00:00 22.7 16 Este 24 Nordeste 0 -- -- 48
2019-07-23 02:00:00 24.2 15 Norte 25 Noroeste 0 -- -- 40
2019-07-23 01:00:00 25.9 4 Sur 7 Sudoeste 0 -- -- 34
2019-07-23 00:00:00 26.7 5 Sudoeste 30 Este 0 -- -- 33
2019-07-22 23:00:00 26.9 6 Nordeste 21 Norte 0 -- -- 30
2019-07-22 22:00:00 28.9 13 Norte 21 Norte 0 -- -- 26
2019-07-22 21:00:00 32 10 Sudeste 26 Sudeste 0 -- -- 24
2019-07-22 20:00:00 33.2 16 Sudeste 31 Sudeste 0 -- -- 22
2019-07-22 19:00:00 34.1 21 Sudeste 32 Sudeste 0 -- -- 21
2019-07-22 18:00:00 34.2 19 Sudeste 32 Sudeste 0 -- -- 22
2019-07-22 17:00:00 35.3 20 Sudeste 37 Sudeste 0 -- -- 21
2019-07-22 16:00:00 35.8 22 Sudeste 38 Sudeste 0 -- -- 21
2019-07-22 15:00:00 36.1 14 Sur 28 Sudeste 0 -- -- 21
2019-07-22 14:00:00 35.4 12 Sur 31 Sur 0 -- -- 20
2019-07-22 13:00:00 33.7 16 Sur 33 Sudeste 0 -- -- 22
2019-07-22 12:00:00 32.3 11 Sur 31 Sur 0 -- -- 24
2019-07-22 11:00:00 30 12 Sur 41 Sudeste 0 -- -- 26
2019-07-22 10:00:00 27.6 28 Sudeste 42 Sudeste 0 -- -- 30
2019-07-22 09:00:00 25.9 23 Sudeste 46 Sudeste 0 -- -- 32
2019-07-22 08:00:00 24.4 27 Sudeste 41 Sudeste 0 -- -- 34
2019-07-22 07:00:00 23.9 15 Sudeste 33 Sudeste 0 -- -- 38
2019-07-22 06:00:00 24.4 19 Sudeste 38 Sudeste 0 -- -- 36
2019-07-22 05:00:00 24.9 23 Sudeste 41 Sudeste 0 -- -- 39
2019-07-22 04:00:00 25.3 20 Sudeste 33 Sudeste 0 -- -- 42
2019-07-22 03:00:00 26.3 22 Sudeste 37 Sur 0 -- -- 41
2019-07-22 02:00:00 24.4 7 Sudoeste 15 Sudeste 0 -- -- 35
2019-07-22 01:00:00 24.2 8 Sudoeste 15 Sur 0 -- -- 35
2019-07-22 00:00:00 24.5 4 Sur 14 Sudoeste 0 -- -- 39
2019-07-21 23:00:00 26.3 9 Sudoeste 14 Sudoeste 0 -- -- 37
2019-07-21 22:00:00 28.9 6 Sur 13 Sudoeste 0 -- -- 35
2019-07-21 21:00:00 30.9 9 Sudoeste 26 Oeste 0 -- -- 34
2019-07-21 20:00:00 32.8 10 Oeste 45 Oeste 0 -- -- 25
2019-07-21 19:00:00 33.6 11 Oeste 21 Noroeste 0 -- -- 25
2019-07-21 18:00:00 34.7 8 Noroeste 27 Noroeste 0 -- -- 23
2019-07-21 17:00:00 34.7 12 Noroeste 27 Oeste 0 -- -- 23
2019-07-21 16:00:00 34.1 16 Oeste 28 Noroeste 0 -- -- 24
2019-07-21 15:00:00 34.4 13 Noroeste 28 Noroeste 0 -- -- 24
2019-07-21 14:00:00 33.5 9 Noroeste 23 Noroeste 0 -- -- 26
2019-07-21 13:00:00 32.8 12 Norte 21 Norte 0 -- -- 27
2019-07-21 12:00:00 29.8 14 Nordeste 21 Nordeste 0 -- -- 32
2019-07-21 11:00:00 27.6 11 Nordeste 16 Nordeste 0 -- -- 35
2019-07-21 10:00:00 24.8 6 Nordeste 10 Nordeste 0 -- -- 38
2019-07-21 09:00:00 21.1 3 Este 5 Este 0 -- -- 48
2019-07-21 08:00:00 17 2 Sudoeste 9 Sudoeste 0 -- -- 59
2019-07-21 07:00:00 16.4 3 Sudoeste 8 Sudoeste 0 -- -- 58
2019-07-21 06:00:00 16.8 3 Sur 6 Sudoeste 0 -- -- 53
2019-07-21 05:00:00 18.5 3 Sudoeste 17 Sudoeste 0 -- -- 48
2019-07-21 04:00:00 19.3 7 Sudoeste 13 Sudoeste 0 -- -- 44
2019-07-21 03:00:00 20.2 6 Sudoeste 13 Sudoeste 0 -- -- 43
2019-07-21 02:00:00 20.5 5 Sudoeste 10 Sudoeste 0 -- -- 40
2019-07-21 01:00:00 21.8 4 Sudoeste 12 Sudoeste 0 -- -- 36
2019-07-21 00:00:00 22.7 7 Sudoeste 13 Sudoeste 0 -- -- 33
2019-07-20 23:00:00 25 5 Oeste 8 Oeste 0 -- -- 29
2019-07-20 22:00:00 28.1 4 Noroeste 18 Norte 0 -- -- 25
2019-07-20 21:00:00 31 10 Noroeste 27 Noroeste 0 -- -- 23
2019-07-20 20:00:00 31.8 16 Noroeste 30 Oeste 0 -- -- 24
2019-07-20 19:00:00 32.1 14 Noroeste 31 Oeste 0 -- -- 25
2019-07-20 18:00:00 32.4 20 Noroeste 35 Noroeste 0 -- -- 27
2019-07-20 17:00:00 32.4 18 Noroeste 49 Noroeste 0 -- -- 28
2019-07-20 16:00:00 32.5 16 Oeste 33 Oeste 0 -- -- 28
2019-07-20 15:00:00 31.9 16 Noroeste 33 Oeste 0 -- -- 29
2019-07-20 14:00:00 30.6 18 Noroeste 30 Noroeste 0 -- -- 33
2019-07-20 13:00:00 29.5 10 Noroeste 19 Noroeste 0 -- -- 36
2019-07-20 12:00:00 27.5 5 Sudoeste 13 Oeste 0 -- -- 40
2019-07-20 11:00:00 25.1 5 Oeste 17 Noroeste 0 -- -- 47
2019-07-20 10:00:00 23.1 10 Oeste 18 Oeste 0 -- -- 53
2019-07-20 09:00:00 22.3 4 Noroeste 8 Noroeste 0 -- -- 48
2019-07-20 08:00:00 18.8 4 Sudoeste 9 Sudoeste 0 -- -- 55
2019-07-20 07:00:00 17.7 5 Sudoeste 13 Sudoeste 0 -- -- 55
2019-07-20 06:00:00 20.4 9 Sudoeste 14 Sudoeste 0 -- -- 49
2019-07-20 05:00:00 20.7 9 Sudoeste 13 Sudoeste 0 -- -- 48
2019-07-20 04:00:00 21.5 9 Sudoeste 13 Sudoeste 0 -- -- 45
2019-07-20 03:00:00 22.9 9 Oeste 22 Oeste 0 -- -- 42
2019-07-20 02:00:00 24 13 Sudoeste 33 Oeste 0 -- -- 39
2019-07-20 01:00:00 23.3 12 Oeste 27 Noroeste 0 -- -- 36
2019-07-20 00:00:00 24.3 12 Sudoeste 16 Sudoeste 0 -- -- 34
2019-07-19 23:00:00 26.4 7 Sudoeste 13 Oeste 0 -- -- 30
2019-07-19 22:00:00 29.2 12 Oeste 30 Oeste 0 -- -- 26
2019-07-19 21:00:00 32 21 Oeste 32 Oeste 0 -- -- 23
2019-07-19 20:00:00 32 6 Oeste 30 Oeste 0 -- -- 24
2019-07-19 19:00:00 33 15 Oeste 35 Oeste 0 -- -- 23
2019-07-19 18:00:00 33 12 Sudoeste 35 Oeste 0 -- -- 25
2019-07-19 17:00:00 32.6 18 Oeste 36 Oeste 0 -- -- 25
2019-07-19 16:00:00 33.3 16 Oeste 36 Oeste 0 -- -- 24
2019-07-19 15:00:00 33 11 Oeste 26 Oeste 0 -- -- 24
2019-07-19 14:00:00 32.6 10 Noroeste 31 Sur 0 -- -- 24
2019-07-19 13:00:00 32.9 9 Sur 28 Sudoeste 0 -- -- 23
2019-07-19 12:00:00 32.1 14 Sur 26 Sudoeste 0 -- -- 26
2019-07-19 11:00:00 30.3 10 Sur 19 Sudeste 0 -- -- 25
2019-07-19 10:00:00 26 2 Nordeste 6 Este 0 -- -- 29
2019-07-19 09:00:00 20.3 0 Calma 5 Sudoeste 0 -- -- 35
2019-07-19 08:00:00 17 4 Sudoeste 7 Sur 0 -- -- 43
2019-07-19 07:00:00 16.8 4 Sudeste 10 Sudeste 0 -- -- 42
2019-07-19 06:00:00 16.4 4 Sur 10 Sudeste 0 -- -- 42
2019-07-19 05:00:00 16.7 3 Sur 10 Sur 0 -- -- 40
2019-07-19 04:00:00 17.3 7 Sudoeste 10 Sudoeste 0 -- -- 39
2019-07-19 03:00:00 18 6 Sudoeste 10 Sur 0 -- -- 38
2019-07-19 02:00:00 19 8 Sudoeste 10 Sudoeste 0 -- -- 37
2019-07-19 01:00:00 20.7 4 Sudoeste 7 Sudeste 0 -- -- 34
2019-07-19 00:00:00 23 4 Norte 6 Noroeste 0 -- -- 31